Have a Safe July 4th! 

Flight Track Log - Related Links

Times and Time Zones

All times are in EDT time to prevent confusion due to time zone crossing. See the AFR1527 flight status page for this flight to view local times or setup timezone preferences in your user account.

Time Position Orientation Groundspeed Altitude Reporting Facility
EDT Latitude Longitude Course Direction KTS MPH feet Rate Location/Type
Sat 02:30:54 PM 45.5270 12.3830 45° Northeast 141 162 1,500  Level FlightAware ADS-B
Sat 02:31:33 PM 45.5490 12.4130 44° Northeast 185 213 2,400 1,377 Climbing FlightAware ADS-B
Sat 02:31:55 PM 45.5660 12.4250 26° Northeast 212 244 2,900 1,932 Climbing FlightAware ADS-B
Sat 02:32:32 PM 45.5920 12.3870 314° West 262 302 4,300 2,783 Climbing FlightAware ADS-B
Sat 02:33:04 PM 45.5950 12.3300 274° West 274 315 6,100 3,138 Climbing FlightAware ADS-B
Sat 02:33:37 PM 45.5990 12.2680 275° West 292 336 7,700 3,296 Climbing FlightAware ADS-B
Sat 02:34:15 PM 45.6040 12.1980 276° West 283 326 10,000 3,429 Climbing FlightAware ADS-B
Sat 02:34:47 PM 45.6080 12.1370 275° West 289 333 11,700 2,786 Climbing FlightAware ADS-B
Sat 02:35:11 PM 45.6110 12.0910 275° West 305 351 12,600 2,237 Climbing FlightAware ADS-B
Sat 02:35:46 PM 45.6160 12.0190 276° West 322 371 13,900 2,344 Climbing FlightAware ADS-B
Sat 02:36:15 PM 45.6190 11.9590 274° West 329 379 15,100 2,696 Climbing FlightAware ADS-B
Sat 02:36:55 PM 45.6250 11.8680 275° West 335 386 17,000 2,743 Climbing FlightAware ADS-B
Sat 02:37:25 PM 45.6300 11.7990 276° West 344 396 18,300 2,542 Climbing FlightAware ADS-B
Sat 02:37:54 PM 45.6340 11.7350 275° West 353 406 19,500 2,581 Climbing FlightAware ADS-B
Sat 02:38:58 PM 45.6390 11.5830 273° West 365 420 22,300 2,512 Climbing FlightAware ADS-B
Sat 02:40:03 PM 45.6410 11.4240 271° West 375 432 24,900 2,000 Climbing FlightAware ADS-B
Sat 02:41:40 PM 45.6422 11.2908 271° West 390 449 27,700 1,683 Climbing FlightAware ADS-B
Sat 02:42:47 PM 45.6438 11.1178 271° West 396 456 29,500 1,953 Climbing FlightAware ADS-B
Sat 02:43:49 PM 45.6460 10.8390 271° West 408 470 31,900 1,545 Climbing FlightAware ADS-B
Sat 02:44:28 PM 45.6470 10.7310 271° West 431 496 32,100 1,352 Climbing FlightAware ADS-B
Sat 02:45:00 PM 45.6550 10.6400 277° West 420 483 33,500 1,913 Climbing FlightAware ADS-B
Sat 02:45:37 PM 45.6680 10.5410 281° West 421 484 34,300 1,412 Climbing FlightAware ADS-B
Sat 02:46:08 PM 45.6790 10.4580 281° West 420 483 35,100 1,612 Climbing FlightAware ADS-B
Sat 02:46:44 PM 45.6920 10.3590 281° West 416 479 36,100 1,562 Climbing FlightAware ADS-B
Sat 02:47:21 PM 45.7040 10.2600 280° West 412 474 37,000 1,154 Climbing FlightAware ADS-B
Sat 02:48:02 PM 45.7180 10.1530 281° West 414 476 37,600 789 Climbing FlightAware ADS-B
Sat 02:48:37 PM 45.7300 10.0580 280° West 411 473 38,000 250 Climbing FlightAware ADS-B
Sat 02:49:38 PM 45.7510 9.8960 281° West 410 472 38,000  Level FlightAware ADS-B
Sat 02:50:38 PM 45.7710 9.7310 280° West 411 473 38,000  Level FlightAware ADS-B
Sat 02:51:06 PM 45.7800 9.6600 280° West 411 473 38,000  Level FlightAware ADS-B
Sat 02:51:41 PM 45.7910 9.5650 279° West 408 470 38,000  Level FlightAware ADS-B
Sat 02:52:19 PM 45.8030 9.4670 280° West 405 466 38,000  Level FlightAware ADS-B
Sat 02:52:55 PM 45.8150 9.3700 280° West 402 463 38,000  Level FlightAware ADS-B
Sat 02:53:38 PM 45.8280 9.2560 279° West 400 460 38,000  Level FlightAware ADS-B
Sat 02:54:04 PM 45.8360 9.1950 281° West 399 459 38,000  Level FlightAware ADS-B
Sat 02:54:47 PM 45.8490 9.0770 279° West 398 458 38,000  Level FlightAware ADS-B
Sat 02:55:20 PM 45.8600 8.9910 280° West 399 459 38,000  Level FlightAware ADS-B
Sat 02:55:52 PM 45.8690 8.9080 279° West 398 458 38,000  Level FlightAware ADS-B
Sat 02:56:29 PM 45.8800 8.8110 279° West 398 458 38,000  Level FlightAware ADS-B
Sat 02:57:25 PM 45.8960 8.6710 279° West 398 458 38,000  Level FlightAware ADS-B
Sat 02:57:49 PM 45.9030 8.6100 279° West 399 459 38,000  Level FlightAware ADS-B
Sat 02:58:26 PM 45.9150 8.5090 280° West 399 459 38,000  Level FlightAware ADS-B
Sat 02:59:02 PM 45.9310 8.4180 284° West 408 470 38,000  Level FlightAware ADS-B
Sat 02:59:38 PM 45.9590 8.3280 294° West 410 472 38,000  Level FlightAware ADS-B
Sat 03:00:14 PM 45.9870 8.2420 295° West 410 472 38,000  Level FlightAware ADS-B
Sat 03:00:56 PM 46.0200 8.1370 294° West 412 474 38,000  Level FlightAware ADS-B
Sat 03:01:32 PM 46.0500 8.0430 295° West 414 476 38,000  Level FlightAware ADS-B
Sat 03:02:08 PM 46.0780 7.9510 294° West 416 479 38,000  Level FlightAware ADS-B
Sat 03:02:43 PM 46.1050 7.8690 295° West 417 480 38,000  Level FlightAware ADS-B
Sat 03:03:17 PM 46.1320 7.7810 294° West 417 480 38,000  Level FlightAware ADS-B
Sat 03:03:52 PM 46.1610 7.6900 295° West 416 479 38,000  Level FlightAware ADS-B
Sat 03:04:46 PM 46.2030 7.5570 295° West 412 474 38,000  Level FlightAware ADS-B
Sat 03:05:47 PM 46.2510 7.4010 294° West 408 470 38,000 -59 Level FlightAware ADS-B
Sat 03:06:28 PM 46.2820 7.3030 295° West 408 470 37,900 -73 Descending FlightAware ADS-B
Sat 03:07:09 PM 46.3160 7.2010 296° West 414 476 37,900 82 Level FlightAware ADS-B
Sat 03:07:41 PM 46.3450 7.1190 297° West 415 478 38,000 92 Climbing FlightAware ADS-B
Sat 03:08:14 PM 46.3720 7.0400 296° West 417 480 38,000 68 Level FlightAware ADS-B
Sat 03:09:09 PM 46.4190 6.9040 297° West 418 481 38,100 77 Climbing FlightAware ADS-B
Sat 03:09:32 PM 46.4390 6.8460 297° West 416 479 38,100 -100 Level FlightAware ADS-B
Sat 03:10:09 PM 46.4710 6.7540 297° West 415 478 38,000 -66 Descending FlightAware ADS-B
Sat 03:11:03 PM 46.5160 6.6200 296° West 409 471 38,000  Level FlightAware ADS-B
Sat 03:11:32 PM 46.5350 6.5660 297° West 408 470 38,000  Level FlightAware ADS-B
Sat 03:12:01 PM 46.5660 6.4750 296° West 408 470 38,000 -77 Level FlightAware ADS-B
Sat 03:12:50 PM 46.6070 6.3530 296° West 408 470 37,900  Descending FlightAware ADS-B
Sat 03:13:20 PM 46.6310 6.2820 296° West 410 472 38,000 69 Climbing FlightAware ADS-B
Sat 03:14:17 PM 46.6790 6.1400 296° West 414 476 38,000  Level FlightAware ADS-B
Sat 03:14:45 PM 46.7020 6.0700 296° West 415 478 38,000  Level FlightAware ADS-B
Sat 03:15:46 PM 46.7530 5.9150 296° West 416 479 38,000  Level FlightAware ADS-B
Sat 03:16:32 PM 46.7950 5.8030 299° West 421 484 38,000  Level FlightAware ADS-B
Sat 03:17:06 PM 46.8440 5.7320 315° West 441 507 38,000  Level FlightAware ADS-B
Sat 03:18:05 PM 46.9380 5.6250 322° Northwest 436 502 38,000  Level FlightAware ADS-B
Sat 03:18:41 PM 46.9930 5.5610 322° Northwest 435 501 38,000 -59 Level FlightAware ADS-B
Sat 03:19:46 PM 47.0970 5.4410 322° Northwest 438 504 37,900  Descending FlightAware ADS-B
Sat 03:20:21 PM 47.1530 5.3760 322° Northwest 439 505 38,000 64 Climbing FlightAware ADS-B
Sat 03:21:20 PM 47.2450 5.2680 321° Northwest 442 509 38,000 -246 Level FlightAware ADS-B
Sat 03:22:23 PM 47.3470 5.1500 322° Northwest 443 510 37,500 -632 Descending FlightAware ADS-B
Sat 03:22:55 PM 47.3980 5.0920 322° Northwest 436 502 37,000 -957 Descending FlightAware ADS-B
Sat 03:23:32 PM 47.4570 5.0240 322° Northwest 427 491 36,400 -1,000 Descending FlightAware ADS-B
Sat 03:24:07 PM 47.5120 4.9600 322° Northwest 431 496 35,800 -981 Descending FlightAware ADS-B
Sat 03:25:16 PM 47.6200 4.8330 322° Northwest 450 518 34,700 -962 Descending FlightAware ADS-B
Sat 03:25:53 PM 47.6820 4.7610 322° Northwest 447 514 34,100 -943 Descending FlightAware ADS-B
Sat 03:26:26 PM 47.7340 4.7000 322° Northwest 449 517 33,600 -1,429 Descending FlightAware ADS-B
Sat 03:26:56 PM 47.7830 4.6410 321° Northwest 451 519 32,600 -2,411 Descending FlightAware ADS-B
Sat 03:28:13 PM 47.9070 4.4950 322° Northwest 444 511 29,300 -2,595 Descending FlightAware ADS-B
Sat 03:28:47 PM 47.9620 4.4290 321° Northwest 440 506 27,800 -2,083 Descending FlightAware ADS-B
Sat 03:29:25 PM 48.0220 4.3580 322° Northwest 416 479 26,800 -1,784 Descending FlightAware ADS-B
Sat 03:30:01 PM 48.0750 4.2940 321° Northwest 406 467 25,600 -2,320 Descending FlightAware ADS-B
Sat 03:30:40 PM 48.1340 4.2240 322° Northwest 403 464 23,900 -2,424 Descending FlightAware ADS-B
Sat 03:31:40 PM 48.2190 4.1210 321° Northwest 396 456 21,600 -2,250 Descending FlightAware ADS-B
Sat 03:32:16 PM 48.2720 4.0580 322° Northwest 390 449 20,300 -1,371 Descending FlightAware ADS-B
Sat 03:32:50 PM 48.3130 4.0000 317° Northwest 374 430 20,000 -281 Descending FlightAware ADS-B
Sat 03:33:20 PM 48.3440 3.9430 309° West 364 419 20,000 -970 Level FlightAware ADS-B
Sat 03:34:29 PM 48.4320 3.8130 316° Northwest 392 451 18,400 -2,338 Descending FlightAware ADS-B
Sat 03:35:36 PM 48.5270 3.6830 318° Northwest 370 426 14,700 -3,480 Descending FlightAware ADS-B
Sat 03:36:09 PM 48.5640 3.6290 316° Northwest 360 414 12,600 -3,441 Descending FlightAware ADS-B
Sat 03:36:44 PM 48.6090 3.5670 318° Northwest 367 422 10,800 -1,750 Descending FlightAware ADS-B
Sat 03:37:21 PM 48.6610 3.5210 330° Northwest 337 388 10,500 -667 Descending FlightAware ADS-B
Sat 03:37:56 PM 48.7070 3.4810 330° Northwest 313 360 10,000 -1,040 Descending FlightAware ADS-B
Sat 03:38:36 PM 48.7560 3.4370 329° Northwest 304 350 9,200 -1,183 Descending FlightAware ADS-B
Sat 03:39:07 PM 48.7920 3.4070 331° Northwest 294 338 8,600 -1,119 Descending FlightAware ADS-B
Sat 03:39:35 PM 48.8250 3.3770 329° Northwest 285 328 8,100 -1,111 Descending FlightAware ADS-B
Sat 03:40:01 PM 48.8520 3.3530 330° Northwest 282 325 7,600 -971 Descending FlightAware ADS-B
Sat 03:40:43 PM 48.9000 3.3070 328° Northwest 279 321 7,000 -815 Descending FlightAware ADS-B
Sat 03:41:22 PM 48.9430 3.2650 327° Northwest 277 319 6,500 -930 Descending FlightAware ADS-B
Sat 03:41:54 PM 48.9780 3.2300 327° Northwest 274 315 5,900 -1,161 Descending FlightAware ADS-B
Sat 03:42:24 PM 48.9990 3.1870 307° West 254 292 5,300 -1,031 Descending FlightAware ADS-B
Sat 03:42:58 PM 49.0160 3.1340 296° West 230 265 4,800 -828 Descending FlightAware ADS-B
Sat 03:43:22 PM 49.0190 3.0970 277° West 211 243 4,500 -618 Descending FlightAware ADS-B
Sat 03:44:06 PM 49.0170 3.0330 267° West 209 241 4,100 -308 Descending FlightAware ADS-B
Sat 03:44:40 PM 49.0150 2.9840 266° West 206 237 4,100  Level FlightAware ADS-B
Sat 03:45:26 PM 49.0110 2.9200 265° West 181 208 4,100 -152 Level FlightAware ADS-B
Sat 03:45:59 PM 49.0090 2.8810 266° West 165 190 3,900 -590 Descending FlightAware ADS-B
Sat 03:46:27 PM 49.0080 2.8490 267° West 164 189 3,500 -800 Descending FlightAware ADS-B
Sat 03:46:59 PM 49.0060 2.8120 265° West 166 191 3,100 -844 Descending FlightAware ADS-B
Sat 03:47:31 PM 49.0040 2.7750 265° West 158 182 2,600 -857 Descending FlightAware ADS-B
Sat 03:48:09 PM 49.0020 2.7340 266° West 142 163 2,100 -750 Descending FlightAware ADS-B
Sat 03:48:43 PM 49.0000 2.7030 264° West 116 133 1,700 -636 Descending FlightAware ADS-B
Sat 03:49:15 PM 48.9990 2.6770 267° West 119 137 1,400 -610 Descending FlightAware ADS-B
Sat 03:49:42 PM 48.9980 2.6560 266° West 121 139 1,100 -643 Descending FlightAware ADS-B
Sat 03:50:11 PM 48.9960 2.6310 263° West 120 138 800 -636 Descending FlightAware ADS-B
Sat 03:50:48 PM 48.9950 2.6020 267° West 121 139 400 -649 Descending FlightAware ADS-B

Login

Don't have an account? Register now (free) for customized features, flight alerts, and more!